METAR Analyzer

一覧表示

Hello, Guest. (Login)

WADD/DPS  -  バリ/デンパサール/ングラ・ライ

観測日時
2021-11-28 20:00 (UTC) (69分前)
気温
25
露点
23
湿数
2
相対湿度
88.7%
QNH
1007hPa
推定現地気圧
1006.5hPa
推定海面気圧
1007.0hPa
体感温度
23.4
(無風時)
25.5
HI
25.9
気温前日比
-1
体感温度前日比
-0.4
HI前日比
-1.2
水平視程
>10000m
鉛直視程
データなし
雲底高度
No dense clouds
V/I
VMC (VFR)
RVR
No RVR data
卓越風
1kt from VRB
ガスト
No gust
降水
報告なし
その他の天気
報告なし
少しの雲 @ 1700ft AGL

WADD 282000Z VRB01KT 9999 FEW017 25/23 Q1007 NOSIG

RPLL/MNL  -  マニラ/ニノイ・アキノ

観測日時
2021-11-28 20:00 (UTC) (69分前)
気温
25
露点
24
湿数
1
相対湿度
94.2%
QNH
1008.1hPa
推定現地気圧
1005.4hPa
推定海面気圧
1008.0hPa
体感温度
23.7
(無風時)
25.8
HI
26
気温前日比
-1
体感温度前日比
+0.2
HI前日比
-1
水平視程
>10000m
鉛直視程
データなし
雲底高度
No dense clouds
V/I
VMC (VFR)
RVR
No RVR data
卓越風
1kt from VRB
ガスト
No gust
降水
報告なし
その他の天気
報告なし
少しの雲 @ 2500ft AGL

RPLL 282000Z VRB01KT 9999 FEW025 25/24 Q1008 RMK A2977

VTBS/BKK  -  バンコク/スワンナプーム

観測日時
2021-11-28 20:30 (UTC) (39分前)
気温
26
露点
18
湿数
8
相対湿度
61.4%
QNH
1010hPa
推定現地気圧
1009.8hPa
推定海面気圧
1010.0hPa
体感温度
20
(無風時)
24.6
HI
26.3
気温前日比
+3
体感温度前日比
+2.2
HI前日比
+2.9
水平視程
>10000m
鉛直視程
データなし
雲底高度
10000ft AGL
V/I
VMC (VFR)
RVR
No RVR data
卓越風
7kt from 360°
ガスト
No gust
降水
報告なし
その他の天気
報告なし
少しの雲 @ 3500ft AGL / 隙間のある雲 @ 10000ft AGL

VTBS 282030Z 36007KT 9999 FEW035 BKN100 26/18 Q1010 NOSIG

VTSM/USM  -  サムイ